createdAt,value
2022-09-18T00:00:13.428Z,10.97
2022-09-18T00:02:39.949Z,11.01
2022-09-18T00:05:06.909Z,11.05
2022-09-18T00:07:33.353Z,11.04
2022-09-18T00:09:59.880Z,11.03
2022-09-18T00:12:29.089Z,11.02
2022-09-18T00:14:55.622Z,11.04
2022-09-18T00:17:22.271Z,11.06
2022-09-18T00:19:49.133Z,11.11
2022-09-18T00:22:15.645Z,11.13
2022-09-18T00:24:42.199Z,11.15
2022-09-18T00:27:08.706Z,11.15
2022-09-18T00:29:35.171Z,11.16
2022-09-18T00:32:01.990Z,11.14
2022-09-18T00:34:28.576Z,11.13
2022-09-18T00:36:55.076Z,11.10
2022-09-18T00:39:21.580Z,11.07
2022-09-18T00:41:48.162Z,11.06
2022-09-18T00:44:40.859Z,11.01
2022-09-18T00:47:10.309Z,10.98
2022-09-18T00:49:44.529Z,10.97
2022-09-18T00:52:14.061Z,10.94
2022-09-18T00:54:44.838Z,10.89
2022-09-18T00:57:27.429Z,10.88
2022-09-18T00:59:54.881Z,10.87
2022-09-18T01:02:21.828Z,10.89
2022-09-18T01:04:49.803Z,10.89
2022-09-18T01:07:55.683Z,10.90
2022-09-18T01:10:25.265Z,10.86
2022-09-18T01:12:56.841Z,10.85
2022-09-18T01:15:42.097Z,10.88
2022-09-18T01:18:24.378Z,10.89
2022-09-18T01:21:06.069Z,10.88
2022-09-18T01:23:42.225Z,10.85
2022-09-18T01:26:24.249Z,10.83
2022-09-18T01:28:56.268Z,10.82
2022-09-18T01:31:29.925Z,10.82
2022-09-18T01:34:23.528Z,10.82
2022-09-18T01:36:55.316Z,10.82
2022-09-18T01:39:33.788Z,10.81
2022-09-18T01:42:03.301Z,10.81
2022-09-18T01:44:32.220Z,10.81
2022-09-18T01:47:05.349Z,10.85
2022-09-18T01:49:39.940Z,10.87
2022-09-18T01:52:12.015Z,10.87
2022-09-18T01:54:44.778Z,10.88
2022-09-18T01:57:25.688Z,10.89
2022-09-18T02:00:02.852Z,10.89
2022-09-18T02:02:58.357Z,10.87
2022-09-18T02:05:32.081Z,10.88
2022-09-18T02:08:16.924Z,10.88
2022-09-18T02:10:51.193Z,10.87
2022-09-18T02:13:24.808Z,10.86
2022-09-18T02:15:56.422Z,10.86
2022-09-18T02:18:30.282Z,10.86
2022-09-18T02:20:58.774Z,10.85
2022-09-18T02:23:26.264Z,10.83
2022-09-18T02:26:04.564Z,10.83
2022-09-18T02:28:32.575Z,10.85
2022-09-18T02:31:00.312Z,10.84
2022-09-18T02:33:28.685Z,10.85
2022-09-18T02:36:19.983Z,10.83
2022-09-18T02:38:57.345Z,10.81
2022-09-18T02:41:26.806Z,10.82
2022-09-18T02:44:14.153Z,10.84
2022-09-18T02:46:58.053Z,10.85
2022-09-18T02:49:44.565Z,10.89
2022-09-18T02:52:19.392Z,10.89
2022-09-18T02:55:02.143Z,10.89
2022-09-18T02:57:36.713Z,10.89
2022-09-18T03:00:08.321Z,10.89
2022-09-18T03:02:37.599Z,10.93
2022-09-18T03:05:05.192Z,10.95
2022-09-18T03:07:40.061Z,10.97
2022-09-18T03:10:07.277Z,10.98
2022-09-18T03:12:34.780Z,10.99
2022-09-18T03:15:02.666Z,10.99
2022-09-18T03:17:29.181Z,10.99
2022-09-18T03:19:55.817Z,11.01
2022-09-18T03:22:22.385Z,11.02
2022-09-18T03:24:49.190Z,11.07
2022-09-18T03:27:18.046Z,11.09
2022-09-18T03:29:47.917Z,11.15
2022-09-18T03:32:16.699Z,11.15
2022-09-18T03:34:48.942Z,11.20
2022-09-18T03:37:16.309Z,11.24
2022-09-18T03:39:44.356Z,11.25
2022-09-18T03:42:13.323Z,11.25
2022-09-18T03:44:40.048Z,11.24
2022-09-18T03:47:16.226Z,11.25
2022-09-18T03:49:42.695Z,11.25
2022-09-18T03:52:09.201Z,11.25
2022-09-18T03:54:43.647Z,11.24
2022-09-18T03:57:17.385Z,11.23
2022-09-18T04:03:01.570Z,11.25
2022-09-18T04:05:31.399Z,11.25
2022-09-18T04:08:17.477Z,11.27
2022-09-18T04:11:19.177Z,11.25
2022-09-18T04:13:45.745Z,11.26
2022-09-18T04:16:13.512Z,11.26
2022-09-18T04:18:40.291Z,11.28
2022-09-18T04:21:08.192Z,11.30
2022-09-18T04:23:34.816Z,11.28
2022-09-18T04:26:08.797Z,11.27
2022-09-18T04:28:39.155Z,11.23
2022-09-18T04:31:06.937Z,11.22
2022-09-18T04:33:33.500Z,11.22
2022-09-18T04:35:59.944Z,11.21
2022-09-18T04:38:27.948Z,11.20
2022-09-18T04:41:00.202Z,11.16
2022-09-18T04:43:28.423Z,11.12
2022-09-18T04:45:55.265Z,11.11
2022-09-18T04:48:22.709Z,11.16
2022-09-18T04:50:49.669Z,11.20
2022-09-18T04:53:18.193Z,11.21
2022-09-18T04:55:47.551Z,11.23
2022-09-18T04:58:17.112Z,11.23
2022-09-18T05:00:48.188Z,11.23
2022-09-18T05:03:19.340Z,11.20
2022-09-18T05:05:48.256Z,11.20
2022-09-18T05:08:16.668Z,11.22
2022-09-18T05:10:43.864Z,11.23
2022-09-18T05:13:11.447Z,11.23
2022-09-18T05:15:43.780Z,11.21
2022-09-18T05:18:12.140Z,11.24
2022-09-18T05:20:39.450Z,11.31
2022-09-18T05:23:08.262Z,11.33
2022-09-18T05:25:36.268Z,11.34
2022-09-18T05:28:03.567Z,11.34
2022-09-18T05:30:43.547Z,11.35
2022-09-18T05:33:11.494Z,11.36
2022-09-18T05:35:39.966Z,11.33
2022-09-18T05:38:06.951Z,11.31
2022-09-18T05:40:37.132Z,11.26
2022-09-18T05:43:04.678Z,11.24
2022-09-18T05:45:33.422Z,11.20
2022-09-18T05:48:05.613Z,11.16
2022-09-18T05:50:34.349Z,11.15
2022-09-18T05:53:08.588Z,11.18
2022-09-18T05:55:45.066Z,11.19
2022-09-18T05:58:14.154Z,11.22
2022-09-18T06:00:41.265Z,11.24
2022-09-18T06:03:16.856Z,11.27
2022-09-18T06:05:51.549Z,11.31
2022-09-18T06:08:18.144Z,11.32
2022-09-18T06:10:44.605Z,11.32
2022-09-18T06:13:15.471Z,11.35
2022-09-18T06:15:49.915Z,11.36
2022-09-18T06:18:21.019Z,11.41
2022-09-18T06:20:56.597Z,11.45
2022-09-18T06:23:27.054Z,11.50
2022-09-18T06:26:01.446Z,11.57
2022-09-18T06:28:30.830Z,11.56
2022-09-18T06:31:02.687Z,11.57
2022-09-18T06:33:36.643Z,11.60
2022-09-18T06:36:08.325Z,11.64
2022-09-18T06:38:42.963Z,11.69
2022-09-18T06:41:09.700Z,11.70
2022-09-18T06:43:50.226Z,11.73
2022-09-18T06:46:35.291Z,11.77
2022-09-18T06:49:15.293Z,11.88
2022-09-18T06:51:46.057Z,11.97
2022-09-18T06:54:16.390Z,12.01
2022-09-18T06:56:43.201Z,12.08
2022-09-18T06:59:12.301Z,12.13
2022-09-18T07:01:39.897Z,12.15
2022-09-18T07:04:20.671Z,12.18
2022-09-18T07:06:47.310Z,12.27
2022-09-18T07:09:14.796Z,12.35
2022-09-18T07:12:01.739Z,12.36
2022-09-18T07:14:48.453Z,12.46
2022-09-18T07:17:18.666Z,12.55
2022-09-18T07:19:48.008Z,12.58
2022-09-18T07:22:16.691Z,12.63
2022-09-18T07:24:46.750Z,12.72
2022-09-18T07:27:14.320Z,12.70
2022-09-18T07:29:42.206Z,12.72
2022-09-18T07:32:12.222Z,12.80
2022-09-18T07:34:38.684Z,12.85
2022-09-18T07:37:09.578Z,12.88
2022-09-18T07:39:37.369Z,12.95
2022-09-18T07:42:22.327Z,12.97
2022-09-18T07:44:51.809Z,13.06
2022-09-18T07:47:18.454Z,13.09
2022-09-18T07:49:45.062Z,13.10
2022-09-18T07:52:12.200Z,13.13
2022-09-18T07:54:44.777Z,13.11
2022-09-18T07:57:30.595Z,13.08
2022-09-18T08:00:17.540Z,13.11
2022-09-18T08:02:49.447Z,13.19
2022-09-18T08:05:36.228Z,13.32
2022-09-18T08:08:08.890Z,13.47
2022-09-18T08:10:55.937Z,13.51
2022-09-18T08:13:48.386Z,13.53
2022-09-18T08:16:34.856Z,13.57
2022-09-18T08:19:04.786Z,13.60
2022-09-18T08:21:43.816Z,13.65
2022-09-18T08:24:12.915Z,13.76
2022-09-18T08:26:40.189Z,13.88
2022-09-18T08:29:07.001Z,14.02
2022-09-18T08:31:35.577Z,14.20
2022-09-18T08:34:04.829Z,14.42
2022-09-18T08:36:31.471Z,14.47
2022-09-18T08:39:02.012Z,14.49
2022-09-18T08:41:56.928Z,14.53
2022-09-18T08:44:29.884Z,14.71
2022-09-18T08:47:09.987Z,14.90
2022-09-18T08:49:57.478Z,14.94
2022-09-18T08:52:28.926Z,14.91
2022-09-18T08:55:16.113Z,14.77
2022-09-18T08:58:19.445Z,14.60
2022-09-18T09:00:52.731Z,14.50
2022-09-18T09:03:49.876Z,14.47
2022-09-18T09:06:26.733Z,14.52
2022-09-18T09:09:02.446Z,14.63
2022-09-18T09:11:44.132Z,14.67
2022-09-18T09:14:57.594Z,14.72
2022-09-18T09:17:39.734Z,14.83
2022-09-18T09:20:13.114Z,14.95
2022-09-18T09:23:18.005Z,15.05
2022-09-18T09:26:03.004Z,15.15
2022-09-18T09:29:03.240Z,15.31
2022-09-18T09:32:21.068Z,15.45
2022-09-18T09:35:03.580Z,15.52
2022-09-18T09:37:42.453Z,15.64
2022-09-18T09:40:18.382Z,15.74
2022-09-18T09:42:55.900Z,15.72
2022-09-18T09:45:58.933Z,15.82
2022-09-18T09:49:05.211Z,15.94
2022-09-18T09:51:57.752Z,16.06
2022-09-18T09:54:24.735Z,16.19
2022-09-18T09:57:12.400Z,16.27
2022-09-18T09:59:57.833Z,16.15
2022-09-18T10:03:11.802Z,16.11
2022-09-18T10:05:52.983Z,16.16
2022-09-18T10:08:39.344Z,16.19
2022-09-18T10:11:11.179Z,16.19
2022-09-18T10:13:58.485Z,16.13
2022-09-18T10:16:31.321Z,16.10
2022-09-18T10:19:00.709Z,16.04
2022-09-18T10:21:34.405Z,16.06
2022-09-18T10:24:19.383Z,16.02
2022-09-18T10:26:57.165Z,15.93
2022-09-18T10:29:24.013Z,15.84
2022-09-18T10:31:57.358Z,15.74
2022-09-18T10:34:43.286Z,15.53
2022-09-18T10:37:17.110Z,15.38
2022-09-18T10:39:50.837Z,15.48
2022-09-18T10:42:21.408Z,15.70
2022-09-18T10:44:55.748Z,15.98
2022-09-18T10:47:30.869Z,16.25
2022-09-18T10:50:03.163Z,16.45
2022-09-18T10:52:36.103Z,16.66
2022-09-18T10:55:09.953Z,16.65
2022-09-18T10:58:15.289Z,16.52
2022-09-18T11:01:00.148Z,16.41
2022-09-18T11:03:35.104Z,16.31
2022-09-18T11:06:04.641Z,16.23
2022-09-18T11:08:35.254Z,16.15
2022-09-18T11:11:06.554Z,16.09
2022-09-18T11:13:49.685Z,15.98
2022-09-18T11:16:27.467Z,15.91
2022-09-18T11:19:07.174Z,15.92
2022-09-18T11:21:45.227Z,15.91
2022-09-18T11:24:27.402Z,15.94
2022-09-18T11:27:03.579Z,15.95
2022-09-18T11:29:33.730Z,15.91
2022-09-18T11:32:25.347Z,15.81
2022-09-18T11:35:02.536Z,15.70
2022-09-18T11:37:46.264Z,15.57
2022-09-18T11:40:30.189Z,15.48
2022-09-18T11:42:57.198Z,15.46
2022-09-18T11:45:51.281Z,15.61
2022-09-18T11:48:27.831Z,15.79
2022-09-18T11:51:01.983Z,16.01
2022-09-18T11:53:44.500Z,16.18
2022-09-18T11:56:16.520Z,16.23
2022-09-18T11:58:56.185Z,16.21
2022-09-18T12:01:48.729Z,16.09
2022-09-18T12:04:24.236Z,16.06
2022-09-18T12:06:58.026Z,16.05
2022-09-18T12:09:42.183Z,16.14
2022-09-18T12:12:28.234Z,16.10
2022-09-18T12:15:09.483Z,15.96
2022-09-18T12:17:43.353Z,15.80
2022-09-18T12:20:28.579Z,15.70
2022-09-18T12:22:58.507Z,15.69
2022-09-18T12:26:04.224Z,15.71
2022-09-18T12:29:13.169Z,15.67
2022-09-18T12:32:01.512Z,15.55
2022-09-18T12:34:51.246Z,15.39
2022-09-18T12:37:17.633Z,15.32
2022-09-18T12:39:53.830Z,15.26
2022-09-18T12:42:39.073Z,15.19
2022-09-18T12:45:30.545Z,15.18
2022-09-18T12:48:09.639Z,15.24
2022-09-18T12:50:57.578Z,15.39
2022-09-18T12:54:06.409Z,15.59
2022-09-18T12:56:52.508Z,15.71
2022-09-18T12:59:32.943Z,15.78
2022-09-18T13:02:22.090Z,15.85
2022-09-18T13:04:55.919Z,16.01
2022-09-18T13:07:28.529Z,16.34
2022-09-18T13:09:54.952Z,16.57
2022-09-18T13:12:30.552Z,16.69
2022-09-18T13:15:09.754Z,16.72
2022-09-18T13:17:47.829Z,16.76
2022-09-18T13:20:30.683Z,16.84
2022-09-18T13:22:59.120Z,16.94
2022-09-18T13:25:37.084Z,16.96
2022-09-18T13:28:07.645Z,17.00
2022-09-18T13:30:34.058Z,17.06
2022-09-18T13:33:02.477Z,17.04
2022-09-18T13:35:30.577Z,17.01
2022-09-18T13:38:08.971Z,17.04
2022-09-18T13:41:00.447Z,17.04
2022-09-18T13:43:34.821Z,17.00
2022-09-18T13:46:06.634Z,16.97
2022-09-18T13:48:39.771Z,17.03
2022-09-18T13:51:10.272Z,17.07
2022-09-18T13:53:37.871Z,17.11
2022-09-18T13:56:06.867Z,17.08
2022-09-18T13:58:36.253Z,16.99
2022-09-18T14:01:05.875Z,16.94
2022-09-18T14:03:36.347Z,16.89
2022-09-18T14:06:36.688Z,16.79
2022-09-18T14:09:24.311Z,16.62
2022-09-18T14:11:50.864Z,16.40
2022-09-18T14:14:22.733Z,16.25
2022-09-18T14:16:50.741Z,16.13
2022-09-18T14:19:32.187Z,16.03
2022-09-18T14:22:00.267Z,15.90
2022-09-18T14:24:51.071Z,15.81
2022-09-18T14:27:37.684Z,15.80
2022-09-18T14:30:14.172Z,15.80
2022-09-18T14:32:44.455Z,15.79
2022-09-18T14:35:33.632Z,15.78
2022-09-18T14:38:00.171Z,15.76
2022-09-18T14:40:29.840Z,15.74
2022-09-18T14:42:56.418Z,15.73
2022-09-18T14:45:29.919Z,15.69
2022-09-18T14:47:58.019Z,15.67
2022-09-18T14:50:32.265Z,15.63
2022-09-18T14:53:01.730Z,15.59
2022-09-18T14:55:32.475Z,15.57
2022-09-18T14:58:19.225Z,15.54
2022-09-18T15:00:50.942Z,15.52
2022-09-18T15:03:20.835Z,15.49
2022-09-18T15:05:51.039Z,15.46
2022-09-18T15:08:25.823Z,15.43
2022-09-18T15:10:56.600Z,15.47
2022-09-18T15:13:23.262Z,15.48
2022-09-18T15:15:59.593Z,15.48
2022-09-18T15:18:29.240Z,15.44
2022-09-18T15:20:59.198Z,15.40
2022-09-18T15:23:28.907Z,15.39
2022-09-18T15:25:59.544Z,15.42
2022-09-18T15:28:29.000Z,15.42
2022-09-18T15:31:00.044Z,15.40
2022-09-18T15:33:27.389Z,15.38
2022-09-18T15:35:55.809Z,15.38
2022-09-18T15:38:42.822Z,15.39
2022-09-18T15:41:21.147Z,15.38
2022-09-18T15:43:50.160Z,15.38
2022-09-18T15:46:30.380Z,15.36
2022-09-18T15:49:00.389Z,15.35
2022-09-18T15:51:29.686Z,15.32
2022-09-18T15:54:05.541Z,15.28
2022-09-18T15:56:36.448Z,15.28
2022-09-18T15:59:07.690Z,15.27
2022-09-18T16:01:37.058Z,15.24
2022-09-18T16:04:16.909Z,15.17
2022-09-18T16:06:51.981Z,15.12
2022-09-18T16:09:25.142Z,15.10
2022-09-18T16:11:52.264Z,15.05
2022-09-18T16:14:39.526Z,15.01
2022-09-18T16:17:36.969Z,14.98
2022-09-18T16:20:23.573Z,14.98
2022-09-18T16:22:51.920Z,14.95
2022-09-18T16:25:37.782Z,14.92
2022-09-18T16:28:20.212Z,14.90
2022-09-18T16:30:48.398Z,14.85
2022-09-18T16:33:35.151Z,14.83
2022-09-18T16:36:10.616Z,14.77
2022-09-18T16:38:37.047Z,14.75
2022-09-18T16:41:03.564Z,14.72
2022-09-18T16:43:30.099Z,14.68
2022-09-18T16:45:56.593Z,14.65
2022-09-18T16:48:24.143Z,14.62
2022-09-18T16:50:50.593Z,14.57
2022-09-18T16:53:17.545Z,14.53
2022-09-18T16:55:49.191Z,14.52
2022-09-18T16:58:19.030Z,14.51
2022-09-18T17:00:45.857Z,14.46
2022-09-18T17:03:12.696Z,14.44
2022-09-18T17:05:39.356Z,14.41
2022-09-18T17:08:05.907Z,14.41
2022-09-18T17:10:33.245Z,14.38
2022-09-18T17:13:00.241Z,14.37
2022-09-18T17:15:26.822Z,14.37
2022-09-18T17:17:53.619Z,14.36
2022-09-18T17:20:20.351Z,14.34
2022-09-18T17:22:47.675Z,14.33
2022-09-18T17:25:15.034Z,14.33
2022-09-18T17:27:43.892Z,14.32
2022-09-18T17:30:11.635Z,14.32
2022-09-18T17:32:38.401Z,14.30
2022-09-18T17:35:05.270Z,14.28
2022-09-18T17:37:32.122Z,14.25
2022-09-18T17:40:00.049Z,14.22
2022-09-18T17:42:26.643Z,14.18
2022-09-18T17:44:53.134Z,14.17
2022-09-18T17:47:20.369Z,14.16
2022-09-18T17:49:47.014Z,14.15
2022-09-18T17:52:14.090Z,14.15
2022-09-18T17:54:40.976Z,14.16
2022-09-18T17:57:11.581Z,14.17
2022-09-18T17:59:39.453Z,14.17
2022-09-18T18:02:07.734Z,14.14
2022-09-18T18:04:34.731Z,14.14
2022-09-18T18:07:01.994Z,14.12
2022-09-18T18:09:28.444Z,14.10
2022-09-18T18:11:55.175Z,14.09
2022-09-18T18:14:25.076Z,14.07
2022-09-18T18:16:52.697Z,14.05
2022-09-18T18:19:19.439Z,14.02
2022-09-18T18:21:46.065Z,14.02
2022-09-18T18:24:16.290Z,14.02
2022-09-18T18:26:44.014Z,13.99
2022-09-18T18:29:16.716Z,13.96
2022-09-18T18:31:43.807Z,13.93
2022-09-18T18:34:11.785Z,13.91
2022-09-18T18:36:40.415Z,13.87
2022-09-18T18:39:11.996Z,13.83
2022-09-18T18:41:39.563Z,13.78
2022-09-18T18:44:06.918Z,13.75
2022-09-18T18:46:36.671Z,13.72
2022-09-18T18:49:09.194Z,13.69
2022-09-18T18:51:47.465Z,13.66
2022-09-18T18:54:16.407Z,13.63
2022-09-18T18:56:43.487Z,13.59
2022-09-18T18:59:15.046Z,13.57
2022-09-18T19:01:43.184Z,13.58
2022-09-18T19:04:13.061Z,13.57
2022-09-18T19:06:41.858Z,13.57
2022-09-18T19:09:17.071Z,13.56
2022-09-18T19:11:49.379Z,13.56
2022-09-18T19:14:22.165Z,13.52
2022-09-18T19:16:49.464Z,13.48
2022-09-18T19:19:17.894Z,13.47
2022-09-18T19:21:44.732Z,13.46
2022-09-18T19:24:12.431Z,13.46
2022-09-18T19:26:40.543Z,13.46
2022-09-18T19:29:10.526Z,13.48
2022-09-18T19:31:39.956Z,13.50
2022-09-18T19:34:06.990Z,13.51
2022-09-18T19:36:34.192Z,13.52
2022-09-18T19:39:06.652Z,13.54
2022-09-18T19:42:00.542Z,13.57
2022-09-18T19:44:44.258Z,13.56
2022-09-18T19:47:20.471Z,13.51
2022-09-18T19:49:47.440Z,13.48
2022-09-18T19:52:18.002Z,13.49
2022-09-18T19:54:45.885Z,13.50
2022-09-18T19:57:12.937Z,13.50
2022-09-18T19:59:39.426Z,13.53
2022-09-18T20:02:05.948Z,13.51
2022-09-18T20:04:32.521Z,13.52
2022-09-18T20:06:59.002Z,13.52
2022-09-18T20:09:28.918Z,13.50
2022-09-18T20:11:55.456Z,13.48
2022-09-18T20:14:22.303Z,13.48
2022-09-18T20:16:48.985Z,13.51
2022-09-18T20:19:15.484Z,13.52
2022-09-18T20:21:42.012Z,13.53
2022-09-18T20:24:08.523Z,13.53
2022-09-18T20:26:34.945Z,13.52
2022-09-18T20:29:01.516Z,13.51
2022-09-18T20:31:28.056Z,13.50
2022-09-18T20:33:58.993Z,13.50
2022-09-18T20:36:26.602Z,13.49
2022-09-18T20:38:57.698Z,13.44
2022-09-18T20:41:26.874Z,13.37
2022-09-18T20:43:53.726Z,13.31
2022-09-18T20:46:20.911Z,13.27
2022-09-18T20:48:55.388Z,13.21
2022-09-18T20:51:27.475Z,13.09
2022-09-18T20:53:57.195Z,13.00
2022-09-18T20:56:31.772Z,12.92
2022-09-18T20:58:58.955Z,12.87
2022-09-18T21:01:27.755Z,12.81
2022-09-18T21:04:00.548Z,12.71
2022-09-18T21:06:33.363Z,12.60
2022-09-18T21:09:04.436Z,12.52
2022-09-18T21:11:34.953Z,12.46
2022-09-18T21:14:03.276Z,12.42
2022-09-18T21:16:33.924Z,12.36
2022-09-18T21:19:01.972Z,12.33
2022-09-18T21:21:30.930Z,12.30
2022-09-18T21:24:01.076Z,12.26
2022-09-18T21:26:30.545Z,12.18
2022-09-18T21:28:57.173Z,11.95
2022-09-18T21:31:24.595Z,11.65
2022-09-18T21:33:52.970Z,11.44
2022-09-18T21:36:21.752Z,11.23
2022-09-18T21:38:50.774Z,11.15
2022-09-18T21:41:19.619Z,11.08
2022-09-18T21:43:50.371Z,10.99
2022-09-18T21:46:19.621Z,10.93
2022-09-18T21:48:48.289Z,10.95
2022-09-18T21:51:16.517Z,10.99
2022-09-18T21:53:43.928Z,10.99
2022-09-18T21:56:17.473Z,10.99
2022-09-18T21:58:45.084Z,10.99
2022-09-18T22:01:20.666Z,10.99
2022-09-18T22:03:59.019Z,10.96
2022-09-18T22:06:28.201Z,10.95
2022-09-18T22:08:57.266Z,10.94
2022-09-18T22:11:29.944Z,10.90
2022-09-18T22:13:58.947Z,10.91
2022-09-18T22:16:28.033Z,10.96
2022-09-18T22:18:54.863Z,10.98
2022-09-18T22:21:27.544Z,10.99
2022-09-18T22:23:59.594Z,10.96
2022-09-18T22:26:27.570Z,10.98
2022-09-18T22:28:56.490Z,11.02
2022-09-18T22:31:24.518Z,11.02
2022-09-18T22:33:57.622Z,11.04
2022-09-18T22:36:25.297Z,11.04
2022-09-18T22:38:53.230Z,10.99
2022-09-18T22:41:20.623Z,10.93
2022-09-18T22:43:47.371Z,10.87
2022-09-18T22:46:16.743Z,10.85
2022-09-18T22:48:44.047Z,10.82
2022-09-18T22:51:13.291Z,10.77
2022-09-18T22:53:45.749Z,10.73
2022-09-18T22:56:13.635Z,10.70
2022-09-18T22:58:41.315Z,10.65
2022-09-18T23:01:12.334Z,10.59
2022-09-18T23:03:39.969Z,10.54
2022-09-18T23:06:08.140Z,10.48
2022-09-18T23:08:35.755Z,10.43
2022-09-18T23:11:17.410Z,10.37
2022-09-18T23:13:49.847Z,10.32
2022-09-18T23:16:16.483Z,10.29
2022-09-18T23:18:51.804Z,10.25
2022-09-18T23:21:18.967Z,10.20
2022-09-18T23:23:49.348Z,10.16
2022-09-18T23:26:19.508Z,10.09
2022-09-18T23:28:47.479Z,10.06
2022-09-18T23:31:17.050Z,10.01
2022-09-18T23:33:48.562Z,9.95
2022-09-18T23:36:21.664Z,9.91
2022-09-18T23:38:52.773Z,9.86
2022-09-18T23:41:19.290Z,9.82
2022-09-18T23:43:48.071Z,9.77
2022-09-18T23:46:15.505Z,9.73
2022-09-18T23:48:42.503Z,9.70
2022-09-18T23:51:11.961Z,9.66
2022-09-18T23:53:40.052Z,9.63
2022-09-18T23:56:09.483Z,9.59
2022-09-18T23:58:36.394Z,9.55
